Time;durP1;ratioP1;P1;durP2;ratioP2;P2;SDS_P1;SDS_P2;PMS_P1;PMS_P2;Temp;Humidity;BMP_temperature;BMP_pressure;BME280_temperature;BME280_humidity;BME280_pressure;Samples;Min_cycle;Max_cycle;Signal;HPM_P1;HPM_P2
2021/07/22 00:00:10;;;;;;;9.50;5.47;;;;;;;17.20;76.92;101536.77;125006;1096;64234;-81
2021/07/22 00:02:37;;;;;;;15.18;6.20;;;;;;;17.18;76.85;101541.50;125159;1096;64297;-82
2021/07/22 00:05:08;;;;;;;14.67;6.70;;;;;;;17.16;76.92;101535.50;125177;1096;64236;-81
2021/07/22 00:07:39;;;;;;;9.43;6.00;;;;;;;17.15;77.07;101539.19;125344;1096;64390;-82
2021/07/22 00:10:07;;;;;;;11.43;6.60;;;;;;;17.12;77.16;101543.09;125534;1095;64660;-81
2021/07/22 00:12:34;;;;;;;12.83;6.70;;;;;;;17.10;77.35;101534.42;125192;1096;64368;-83
2021/07/22 00:15:13;;;;;;;10.37;5.83;;;;;;;17.11;77.30;101534.23;125357;1095;64169;-81
2021/07/22 00:17:56;;;;;;;9.13;5.87;;;;;;;17.08;77.68;101525.75;125043;1095;64234;-83
2021/07/22 00:20:23;;;;;;;9.90;5.93;;;;;;;17.07;77.41;101538.34;125372;1096;64284;-84
2021/07/22 00:22:51;;;;;;;15.07;6.80;;;;;;;17.07;77.27;101537.52;125145;1095;64208;-81
2021/07/22 00:25:18;;;;;;;9.87;5.67;;;;;;;17.07;77.48;101538.34;125068;1096;64211;-81
2021/07/22 00:28:14;;;;;;;9.83;6.27;;;;;;;17.09;77.52;101533.61;125157;1095;64320;-80
2021/07/22 00:30:42;;;;;;;10.77;6.43;;;;;;;17.08;77.50;101529.25;125154;1096;64196;-83
2021/07/22 00:33:11;;;;;;;11.53;6.47;;;;;;;17.05;77.78;101535.02;125198;1096;64285;-82
2021/07/22 00:35:38;;;;;;;13.17;7.00;;;;;;;17.02;77.72;101529.22;125205;1096;64231;-82
2021/07/22 00:38:19;;;;;;;12.33;7.53;;;;;;;17.00;77.85;101521.40;124897;1096;64255;-79
2021/07/22 00:40:49;;;;;;;11.70;6.80;;;;;;;17.00;77.91;101524.08;125209;1095;64310;-82
2021/07/22 00:43:16;;;;;;;10.33;5.60;;;;;;;16.99;77.85;101525.09;125113;1095;64265;-81
2021/07/22 00:45:44;;;;;;;10.70;5.80;;;;;;;16.96;78.13;101522.81;125148;1095;64351;-83
2021/07/22 00:48:40;;;;;;;11.65;6.55;;;;;;;16.89;78.12;101517.42;125241;1095;64294;-81
2021/07/22 00:51:14;;;;;;;12.30;6.27;;;;;;;16.95;78.55;101523.82;125119;1096;64310;-81
2021/07/22 00:53:43;;;;;;;17.83;6.43;;;;;;;16.94;78.59;101527.55;125440;1095;64170;-82
2021/07/22 00:56:15;;;;;;;12.80;6.90;;;;;;;16.93;78.75;101514.33;125297;1096;64166;-82
2021/07/22 00:58:43;;;;;;;13.15;7.20;;;;;;;16.93;78.88;101523.19;125141;1096;64281;-82
2021/07/22 01:01:13;;;;;;;11.80;7.17;;;;;;;16.95;78.75;101515.78;125210;1096;64728;-82
2021/07/22 01:03:44;;;;;;;15.00;7.60;;;;;;;16.98;78.73;101517.23;125298;1095;65083;-85
2021/07/22 01:06:11;;;;;;;12.13;7.60;;;;;;;16.98;78.78;101522.59;125294;1096;64285;-82
2021/07/22 01:08:38;;;;;;;10.13;6.23;;;;;;;16.99;78.65;101518.91;125160;1096;64294;-82
2021/07/22 01:11:06;;;;;;;11.95;6.40;;;;;;;17.00;78.76;101525.91;125229;1096;64225;-82
2021/07/22 01:13:36;;;;;;;12.07;6.03;;;;;;;17.01;78.69;101517.67;125205;1096;64307;-83
2021/07/22 01:16:23;;;;;;;14.07;7.67;;;;;;;17.00;78.59;101513.36;125118;1095;64266;-84
2021/07/22 01:18:51;;;;;;;13.20;6.93;;;;;;;17.00;78.61;101521.40;125126;1096;64320;-81
2021/07/22 01:21:32;;;;;;;11.53;7.03;;;;;;;17.02;78.75;101518.50;125319;1096;64208;-82
2021/07/22 01:23:59;;;;;;;11.50;6.83;;;;;;;17.03;78.88;101518.31;126244;1095;64167;-80
2021/07/22 01:26:26;;;;;;;11.73;6.57;;;;;;;17.03;78.93;101520.98;128076;1096;64300;-80
2021/07/22 01:28:56;;;;;;;10.45;6.50;;;;;;;17.01;79.08;101515.00;125688;1096;64304;-82
2021/07/22 01:31:36;;;;;;;;;;;;;;;;;;;;;
2021/07/22 01:34:08;;;;;;;13.60;6.70;;;;;;;17.00;79.07;101518.72;125456;1096;64330;-81
2021/07/22 01:36:41;;;;;;;12.03;7.10;;;;;;;16.99;79.24;101514.37;124995;1096;64283;-83
2021/07/22 01:39:09;;;;;;;13.40;7.77;;;;;;;16.98;79.41;101510.05;125072;1096;64343;-82
2021/07/22 01:41:38;;;;;;;12.63;6.63;;;;;;;16.97;79.41;101511.05;125178;1096;64272;-83
2021/07/22 01:44:25;;;;;;;13.37;7.27;;;;;;;16.99;79.79;101511.69;125875;1096;64301;-82
2021/07/22 01:46:53;;;;;;;13.00;7.20;;;;;;;16.98;79.57;101511.88;125241;1095;65430;-79
2021/07/22 01:49:56;;;;;;;;;;;;;;;;;;;;;
2021/07/22 01:52:23;;;;;;;9.60;5.50;;;;;;;16.98;79.42;101506.52;125031;1096;64522;-82
2021/07/22 01:54:50;;;;;;;10.80;6.73;;;;;;;16.97;79.51;101505.69;125293;1096;64209;-83
2021/07/22 01:57:17;;;;;;;10.47;6.40;;;;;;;16.98;79.80;101498.47;125194;1095;64255;-82
2021/07/22 01:59:46;;;;;;;9.77;5.73;;;;;;;16.95;80.06;101496.20;125117;1095;64230;-83
2021/07/22 02:02:13;;;;;;;11.87;7.20;;;;;;;16.91;80.28;101501.12;125373;1095;64192;-82
2021/07/22 02:04:42;;;;;;;13.87;6.87;;;;;;;16.88;80.32;101501.53;125411;1095;64415;-83
2021/07/22 02:07:12;;;;;;;13.87;7.03;;;;;;;16.82;80.41;101497.77;125516;1096;64221;-83
2021/07/22 02:09:40;;;;;;;14.53;6.90;;;;;;;16.78;80.59;101501.83;125348;1095;64294;-85
2021/07/22 02:12:11;;;;;;;12.77;7.33;;;;;;;16.75;80.41;101502.23;125320;1095;64361;-83
2021/07/22 02:14:39;;;;;;;13.43;6.83;;;;;;;16.73;80.78;101498.11;125349;1095;64292;-84
2021/07/22 02:17:06;;;;;;;12.60;7.10;;;;;;;16.71;80.85;101499.11;125310;1096;64419;-81
2021/07/22 02:19:34;;;;;;;12.63;6.57;;;;;;;16.68;80.98;101491.48;125350;1096;64303;-83
2021/07/22 02:22:01;;;;;;;12.10;7.00;;;;;;;16.64;80.93;101500.08;125354;1095;64284;-83
2021/07/22 02:25:23;;;;;;;10.13;6.17;;;;;;;16.62;81.20;101497.62;125403;1094;64286;-83
2021/07/22 02:27:59;;;;;;;13.10;7.07;;;;;;;16.59;81.53;101492.63;125298;1096;64396;-83
2021/07/22 02:30:31;;;;;;;11.95;6.85;;;;;;;16.58;81.69;101499.03;125356;1095;64421;-82
2021/07/22 02:33:10;;;;;;;10.93;6.67;;;;;;;16.57;81.57;101499.22;126077;1095;64217;-81
2021/07/22 02:35:37;;;;;;;10.13;6.60;;;;;;;16.56;81.53;101493.03;126462;1096;63498;-82
2021/07/22 02:38:08;;;;;;;15.97;7.50;;;;;;;16.58;81.67;101500.89;125820;1095;64283;-83
2021/07/22 02:40:39;;;;;;;12.77;7.90;;;;;;;16.59;81.78;101503.34;125431;1096;64217;-82
2021/07/22 02:43:19;;;;;;;;;;;;;;;;;;;;;
2021/07/22 02:46:17;;;;;;;13.67;7.07;;;;;;;16.64;81.59;101500.93;125234;1095;64263;-83
2021/07/22 02:48:45;;;;;;;10.47;6.30;;;;;;;16.65;81.60;101507.93;125417;1096;64286;-81
2021/07/22 02:51:15;;;;;;;9.95;6.30;;;;;;;16.67;81.65;101508.56;125191;1096;64284;-83
2021/07/22 02:53:50;;;;;;;11.00;7.20;;;;;;;16.65;81.63;101515.97;125271;1095;64333;-83
2021/07/22 02:56:22;;;;;;;;;;;;;;;16.65;81.75;101507.93;125503;1096;64207;-82
2021/07/22 02:58:52;;;;;;;10.67;6.27;;;;;;;16.64;81.79;101516.16;125312;1096;64169;-82
2021/07/22 03:01:23;;;;;;;12.20;6.50;;;;;;;16.64;81.92;101511.64;125102;1095;64282;-83
2021/07/22 03:03:50;;;;;;;12.40;7.03;;;;;;;16.67;82.17;101505.88;125287;1096;64240;-83
2021/07/22 03:06:27;;;;;;;9.20;5.80;;;;;;;16.69;82.21;101514.55;125362;1096;64262;-82
2021/07/22 03:08:57;;;;;;;11.00;5.90;;;;;;;16.70;82.29;101515.38;125218;1096;64371;-82
2021/07/22 03:11:27;;;;;;;10.53;6.17;;;;;;;16.67;82.30;101516.60;125415;1096;64299;-82
2021/07/22 03:14:02;;;;;;;13.00;6.93;;;;;;;16.64;82.46;101517.00;125462;1095;64380;-82
2021/07/22 03:16:42;;;;;;;11.20;6.30;;;;;;;16.61;82.75;101521.91;125494;1096;64348;-83
2021/07/22 03:19:14;;;;;;;11.03;6.77;;;;;;;16.58;82.54;101522.31;125502;1096;62922;-82
2021/07/22 03:21:41;;;;;;;10.70;6.20;;;;;;;16.58;82.68;101516.95;125707;1095;64308;-82
2021/07/22 03:24:11;;;;;;;11.63;5.77;;;;;;;16.57;82.65;101517.96;125624;1095;64233;-82
2021/07/22 03:26:38;;;;;;;11.17;5.97;;;;;;;16.55;82.98;101526.19;125568;1096;64440;-82
2021/07/22 03:29:06;;;;;;;13.43;6.63;;;;;;;16.57;82.92;101515.28;125713;1096;64278;-82
2021/07/22 03:31:34;;;;;;;9.43;6.17;;;;;;;16.57;82.87;101520.64;126372;1096;64163;-81
2021/07/22 03:34:04;;;;;;;10.83;5.73;;;;;;;16.59;83.09;101515.92;125898;1096;64308;-83
2021/07/22 03:36:34;;;;;;;10.30;5.55;;;;;;;16.58;83.42;101512.42;125778;1096;64255;-82
2021/07/22 03:39:01;;;;;;;12.55;6.55;;;;;;;16.56;83.48;101519.82;125647;1096;64298;-85
2021/07/22 03:41:29;;;;;;;13.03;6.77;;;;;;;16.54;83.83;101516.51;125631;1096;64294;-82
2021/07/22 03:43:56;;;;;;;15.27;7.13;;;;;;;16.53;84.00;101509.48;125399;1095;64622;-84
2021/07/22 03:46:43;;;;;;;11.73;7.27;;;;;;;16.55;84.00;101512.80;125268;1096;64342;-84
2021/07/22 03:49:10;;;;;;;12.60;6.80;;;;;;;16.53;84.31;101505.98;125506;1096;64310;-83
2021/07/22 03:51:38;;;;;;;13.17;7.63;;;;;;;16.51;84.44;101506.17;126795;1096;64281;-82
2021/07/22 03:54:15;;;;;;;15.83;7.77;;;;;;;16.49;84.56;101511.73;125494;1096;64227;-82
2021/07/22 03:56:42;;;;;;;12.65;7.00;;;;;;;16.48;84.85;101511.92;125427;1096;64384;-81
2021/07/22 03:59:16;;;;;;;11.43;6.77;;;;;;;16.47;85.21;101510.28;125128;1095;64883;-81
2021/07/22 04:01:55;;;;;;;13.50;7.73;;;;;;;16.46;85.61;101520.14;125404;1095;64413;-83
2021/07/22 04:04:53;;;;;;;12.40;6.53;;;;;;;16.45;85.70;101518.50;125386;1096;64294;-87
2021/07/22 04:07:21;;;;;;;15.43;7.77;;;;;;;16.40;85.80;101518.23;125381;1095;64300;-83
2021/07/22 04:09:50;;;;;;;12.23;6.57;;;;;;;16.37;85.83;101520.50;125362;1096;64217;-82
2021/07/22 04:12:17;;;;;;;15.30;8.70;;;;;;;16.33;85.75;101529.94;125446;1095;64323;-83
2021/07/22 04:14:45;;;;;;;12.50;7.90;;;;;;;16.28;85.93;101528.66;125159;1096;64201;-82
2021/07/22 04:17:15;;;;;;;12.93;7.43;;;;;;;16.26;86.13;101525.34;125134;1095;64279;-83
2021/07/22 04:19:48;;;;;;;15.33;9.00;;;;;;;16.24;86.31;101524.70;125207;1096;64221;-82
2021/07/22 04:22:15;;;;;;;12.30;7.47;;;;;;;16.24;86.22;101522.03;125276;1096;64227;-82
2021/07/22 04:24:45;;;;;;;12.47;7.23;;;;;;;16.25;86.08;101525.53;125302;1095;64279;-82
2021/07/22 04:27:16;;;;;;;15.50;8.40;;;;;;;16.24;86.05;101524.70;125097;1095;64258;-85
2021/07/22 04:29:43;;;;;;;14.53;7.87;;;;;;;16.24;85.84;101522.03;125064;1096;65214;-83
2021/07/22 04:32:11;;;;;;;10.50;6.37;;;;;;;16.26;85.68;101509.28;125300;1096;64281;-82
2021/07/22 04:34:40;;;;;;;13.40;8.50;;;;;;;16.27;85.78;101510.09;125434;1096;64209;-81
2021/07/22 04:37:15;;;;;;;19.17;11.13;;;;;;;16.28;85.47;101509.09;125171;1096;64433;-84
2021/07/22 04:39:45;;;;;;;14.03;8.67;;;;;;;16.29;85.18;101508.88;125660;1096;64281;-84
2021/07/22 04:42:13;;;;;;;27.03;14.83;;;;;;;16.31;85.17;101506.84;125660;1095;64401;-82
2021/07/22 04:44:40;;;;;;;15.53;6.93;;;;;;;16.34;85.13;101507.47;125204;1095;64278;-82
2021/07/22 04:47:18;;;;;;;12.50;7.95;;;;;;;16.38;85.13;101503.39;125071;1096;64282;-82
2021/07/22 04:49:50;;;;;;;17.00;9.07;;;;;;;16.42;84.68;101510.02;125142;1095;64406;-85
2021/07/22 04:52:19;;;;;;;12.30;8.00;;;;;;;16.47;84.71;101510.28;125126;1096;64243;-81
2021/07/22 04:54:49;;;;;;;14.00;8.03;;;;;;;16.51;84.56;101512.38;125154;1096;64252;-81
2021/07/22 04:57:16;;;;;;;12.13;6.77;;;;;;;16.57;84.21;101510.75;125277;1095;64286;-83
2021/07/22 04:59:47;;;;;;;9.70;6.33;;;;;;;16.61;84.00;101512.02;125903;1096;64224;-81
2021/07/22 05:02:19;;;;;;;17.57;8.43;;;;;;;16.65;83.46;101512.47;125572;1096;64256;-81
2021/07/22 05:04:47;;;;;;;16.73;7.90;;;;;;;16.68;83.38;101512.91;124966;1095;64257;-79
2021/07/22 05:07:14;;;;;;;12.10;7.60;;;;;;;16.69;82.96;101509.20;124767;1095;64282;-80
2021/07/22 05:09:41;;;;;;;11.15;6.35;;;;;;;16.73;82.82;101517.68;124680;1096;64220;-78
2021/07/22 05:12:17;;;;;;;11.20;6.93;;;;;;;16.74;82.50;101511.28;124869;1095;64323;-78
2021/07/22 05:14:52;;;;;;;14.60;8.13;;;;;;;16.74;82.13;101515.82;124821;1096;64352;-78
2021/07/22 05:17:21;;;;;;;11.27;6.73;;;;;;;16.73;81.86;101516.86;125007;1096;65026;-81
2021/07/22 05:19:49;;;;;;;14.87;8.10;;;;;;;16.71;81.84;101520.55;125152;1096;65471;-78
2021/07/22 05:22:19;;;;;;;13.33;6.90;;;;;;;16.68;81.74;101523.63;124804;1096;64294;-80
2021/07/22 05:24:46;;;;;;;12.90;7.55;;;;;;;16.66;82.16;101524.82;124730;1096;64425;-78
2021/07/22 05:27:14;;;;;;;10.90;7.57;;;;;;;16.64;81.73;101517.00;124900;1096;64225;-78
2021/07/22 05:29:43;;;;;;;12.35;7.30;;;;;;;16.61;81.67;101517.38;125200;1096;64268;-78
2021/07/22 05:32:12;;;;;;;10.57;6.77;;;;;;;16.60;81.78;101525.63;124843;1096;64249;-79
2021/07/22 05:34:39;;;;;;;17.07;9.33;;;;;;;16.60;81.83;101521.09;124392;1096;64325;-79
2021/07/22 05:37:12;;;;;;;12.33;6.70;;;;;;;16.62;81.47;101521.73;124986;1096;64186;-80
2021/07/22 05:39:41;;;;;;;11.48;6.60;;;;;;;16.63;81.35;101520.69;124839;1096;64304;-79
2021/07/22 05:42:08;;;;;;;14.40;8.80;;;;;;;16.65;81.57;101513.28;124736;1095;64324;-77
2021/07/22 05:44:35;;;;;;;12.90;7.95;;;;;;;16.75;81.54;101517.50;124703;1096;64297;-78
2021/07/22 05:47:02;;;;;;;11.47;7.23;;;;;;;16.83;81.58;101525.38;124765;1096;64283;-78
2021/07/22 05:49:32;;;;;;;46.50;7.73;;;;;;;16.89;80.79;101517.42;124762;1096;64279;-77
2021/07/22 05:52:02;;;;;;;15.70;6.93;;;;;;;17.00;80.48;101531.27;124781;1096;64359;-77
2021/07/22 05:54:30;;;;;;;12.73;6.47;;;;;;;17.08;79.67;101523.89;124768;1095;64294;-78
2021/07/22 05:56:57;;;;;;;10.03;5.80;;;;;;;17.19;79.59;101535.09;124695;1096;64336;-78
2021/07/22 05:59:24;;;;;;;11.73;6.40;;;;;;;17.27;79.04;101533.07;124825;1096;65518;-76
2021/07/22 06:01:51;;;;;;;9.23;6.63;;;;;;;17.34;78.96;101530.45;124680;1096;64317;-75
2021/07/22 06:04:19;;;;;;;9.47;5.90;;;;;;;17.43;78.32;101529.23;124611;1095;64850;-77
2021/07/22 06:06:46;;;;;;;12.05;7.25;;;;;;;17.60;78.61;101534.27;124990;1095;64588;-80
2021/07/22 06:09:13;;;;;;;9.43;5.03;;;;;;;17.79;77.98;101530.81;125133;1095;64292;-80
2021/07/22 06:11:40;;;;;;;11.97;6.87;;;;;;;17.96;77.06;101531.30;125281;1096;64287;-79
2021/07/22 06:14:10;;;;;;;15.33;6.90;;;;;;;18.13;76.32;101529.06;125218;1095;64243;-79
2021/07/22 06:16:37;;;;;;;12.50;8.40;;;;;;;18.29;75.85;101528.64;124711;1096;64422;-75
2021/07/22 06:19:04;;;;;;;8.40;5.80;;;;;;;18.44;74.72;101530.30;124732;1096;64250;-76
2021/07/22 06:21:32;;;;;;;9.90;6.87;;;;;;;18.56;74.30;101530.52;124703;1095;64259;-75
2021/07/22 06:23:59;;;;;;;11.57;7.03;;;;;;;18.71;73.78;101528.44;124833;1096;64283;-75
2021/07/22 06:26:26;;;;;;;11.67;6.80;;;;;;;18.83;73.00;101524.11;124847;1096;64284;-76
2021/07/22 06:28:53;;;;;;;8.65;5.65;;;;;;;19.01;73.00;101538.76;124723;1096;64432;-74
2021/07/22 06:31:20;;;;;;;12.17;6.70;;;;;;;19.17;72.15;101532.08;124735;1096;64282;-75
2021/07/22 06:33:47;;;;;;;12.73;6.93;;;;;;;19.27;71.03;101532.47;124757;1096;64250;-74
2021/07/22 06:36:15;;;;;;;13.97;7.17;;;;;;;19.38;71.30;101530.98;124803;1096;64301;-76
2021/07/22 06:38:42;;;;;;;17.67;9.23;;;;;;;19.47;70.23;101538.61;124711;1096;64284;-76
2021/07/22 06:41:12;;;;;;;12.17;7.23;;;;;;;19.56;70.20;101529.25;124756;1096;64382;-75
2021/07/22 06:43:39;;;;;;;9.17;5.57;;;;;;;19.70;69.57;101529.20;124790;1095;64266;-75
2021/07/22 06:46:06;;;;;;;11.00;6.67;;;;;;;19.80;69.28;101526.88;124770;1096;64279;-77
2021/07/22 06:48:33;;;;;;;9.67;5.83;;;;;;;19.90;69.27;101524.55;124774;1096;65369;-76
2021/07/22 06:51:01;;;;;;;12.03;6.67;;;;;;;20.02;68.52;101523.84;124778;1096;64333;-74
2021/07/22 06:53:28;;;;;;;11.13;7.40;;;;;;;20.14;68.12;101519.41;124772;1095;64435;-74
2021/07/22 06:55:57;;;;;;;11.73;7.07;;;;;;;20.25;67.67;101524.11;124724;1096;64307;-75
2021/07/22 06:58:27;;;;;;;13.50;7.23;;;;;;;20.34;67.73;101527.36;124706;1095;64281;-74
2021/07/22 07:00:54;;;;;;;14.73;8.30;;;;;;;20.28;66.08;101523.66;124749;1096;64218;-75
2021/07/22 07:03:21;;;;;;;12.70;7.60;;;;;;;20.33;66.92;101521.13;124706;1095;64416;-75
2021/07/22 07:05:50;;;;;;;10.70;5.80;;;;;;;20.28;65.50;101518.27;124747;1096;64258;-76
2021/07/22 07:08:17;;;;;;;11.17;6.10;;;;;;;20.27;65.90;101521.99;124824;1096;64898;-76
2021/07/22 07:10:44;;;;;;;12.97;6.83;;;;;;;20.37;66.83;101527.72;124757;1096;64285;-74
2021/07/22 07:13:13;;;;;;;10.40;7.00;;;;;;;20.49;66.59;101532.42;124769;1095;64307;-75
2021/07/22 07:15:42;;;;;;;11.53;8.00;;;;;;;20.69;65.63;101535.77;124740;1096;64234;-77
2021/07/22 07:18:09;;;;;;;10.67;7.40;;;;;;;20.88;65.09;101530.42;124789;1096;64170;-76
2021/07/22 07:20:46;;;;;;;10.17;6.50;;;;;;;21.05;64.98;101530.66;124907;1096;64304;-73
2021/07/22 07:23:12;;;;;;;8.80;6.77;;;;;;;21.05;63.73;101534.17;124890;1095;64305;-73
2021/07/22 07:25:40;;;;;;;7.90;5.10;;;;;;;21.09;63.28;101535.38;124721;1096;64285;-73
2021/07/22 07:28:07;;;;;;;12.07;6.77;;;;;;;21.06;63.86;101533.14;124757;1096;64282;-75
2021/07/22 07:30:36;;;;;;;11.10;7.07;;;;;;;21.07;63.69;101536.66;124789;1096;64328;-76
2021/07/22 07:33:04;;;;;;;12.50;7.47;;;;;;;21.03;63.32;101540.84;124650;1096;64309;-74
2021/07/22 07:35:32;;;;;;;10.13;6.30;;;;;;;21.05;64.35;101536.88;124474;1096;64281;-75
2021/07/22 07:37:59;;;;;;;13.37;7.77;;;;;;;21.11;64.14;101537.86;124400;1096;64351;-74
2021/07/22 07:40:28;;;;;;;11.17;7.20;;;;;;;21.12;64.02;101536.80;124664;1096;64220;-73
2021/07/22 07:42:56;;;;;;;10.47;6.87;;;;;;;21.22;63.54;101534.40;124685;1096;65442;-74
2021/07/22 07:45:25;;;;;;;10.50;6.70;;;;;;;21.39;63.23;101531.92;124673;1096;64323;-75
2021/07/22 07:47:53;;;;;;;14.77;9.03;;;;;;;21.55;62.83;101528.64;124711;1095;64259;-74
2021/07/22 07:50:31;;;;;;;14.70;8.20;;;;;;;21.76;62.76;101529.17;124760;1096;64351;-75
2021/07/22 07:52:59;;;;;;;11.33;7.17;;;;;;;21.82;61.08;101527.44;124681;1095;65069;-75
2021/07/22 07:55:26;;;;;;;9.77;6.60;;;;;;;21.78;61.72;101532.47;124651;1095;64861;-74
2021/07/22 07:58:00;;;;;;;20.85;12.80;;;;;;;21.78;60.55;101533.31;124690;1096;64297;-74
2021/07/22 08:00:27;;;;;;;12.20;7.30;;;;;;;21.71;60.84;101535.27;124750;1095;64410;-75
2021/07/22 08:02:58;;;;;;;11.77;7.63;;;;;;;21.75;60.83;101533.75;124776;1096;64289;-78
2021/07/22 08:05:28;;;;;;;9.10;6.20;;;;;;;21.78;60.67;101532.47;124685;1096;64304;-74
2021/07/22 08:07:56;;;;;;;10.63;6.80;;;;;;;21.88;60.83;101530.05;124677;1096;64291;-75
2021/07/22 08:10:23;;;;;;;10.73;7.17;;;;;;;22.03;60.31;101528.80;124652;1095;64287;-74
2021/07/22 08:12:50;;;;;;;10.37;6.47;;;;;;;22.19;60.18;101533.55;124821;1096;64298;-76
2021/07/22 08:15:17;;;;;;;10.03;5.70;;;;;;;22.29;59.13;101539.25;124798;1096;64258;-74
2021/07/22 08:17:44;;;;;;;13.77;7.20;;;;;;;22.38;59.78;101521.62;124373;1095;64326;-74
2021/07/22 08:20:14;;;;;;;6.70;5.00;;;;;;;22.67;58.79;101521.73;124686;1096;64846;-75
2021/07/22 08:22:42;;;;;;;13.10;8.80;;;;;;;22.96;57.87;101513.73;124468;1096;64785;-76
2021/07/22 08:25:10;;;;;;;10.17;6.70;;;;;;;23.34;57.75;101524.02;124755;1095;64307;-75
2021/07/22 08:27:39;;;;;;;12.27;8.10;;;;;;;23.61;55.58;101526.19;124947;1096;64307;-76
2021/07/22 08:30:06;;;;;;;12.27;6.90;;;;;;;23.74;55.40;101527.77;124790;1096;64205;-75
2021/07/22 08:32:36;;;;;;;10.90;7.90;;;;;;;23.71;54.82;101533.66;124338;1096;64371;-75
2021/07/22 08:35:05;;;;;;;11.80;6.83;;;;;;;23.73;55.49;101531.53;124778;1095;64237;-77
2021/07/22 08:37:35;;;;;;;12.57;6.70;;;;;;;23.57;54.41;101527.73;124908;1095;64747;-78
2021/07/22 08:40:14;;;;;;;9.13;5.80;;;;;;;23.40;54.79;101527.67;124792;1095;64323;-77
2021/07/22 08:42:44;;;;;;;8.60;5.20;;;;;;;23.18;54.11;101522.88;125004;1096;64234;-74
2021/07/22 08:45:13;;;;;;;12.10;6.60;;;;;;;23.02;55.41;101523.63;124603;1096;64352;-77
2021/07/22 08:47:41;;;;;;;9.40;5.83;;;;;;;22.82;55.90;101515.84;125039;1096;64186;-77
2021/07/22 08:50:11;;;;;;;11.47;5.80;;;;;;;22.69;56.50;101516.91;125260;1096;64213;-78
2021/07/22 08:52:38;;;;;;;8.80;5.60;;;;;;;22.65;57.07;101507.63;125237;1096;64262;-76
2021/07/22 08:55:09;;;;;;;8.75;6.00;;;;;;;22.53;56.99;101518.45;124956;1096;64297;-76
2021/07/22 08:57:40;;;;;;;9.57;5.77;;;;;;;22.38;57.17;101527.02;124973;1096;64502;-76
2021/07/22 09:00:08;;;;;;;19.67;14.87;;;;;;;22.21;58.08;101526.03;125040;1096;64310;-76
2021/07/22 09:02:35;;;;;;;9.33;5.67;;;;;;;22.14;58.68;101530.70;125011;1096;64297;-76
2021/07/22 09:05:14;;;;;;;11.50;5.95;;;;;;;22.09;58.64;101527.88;125023;1095;64355;-78
2021/07/22 09:07:41;;;;;;;8.77;5.73;;;;;;;21.98;58.73;101527.61;127715;1097;62734;-74
2021/07/22 09:10:13;;;;;;;7.97;4.93;;;;;;;21.88;59.21;101529.23;127362;1096;64307;-76
2021/07/22 09:12:49;;;;;;;7.97;5.70;;;;;;;21.77;59.38;101525.44;125036;1095;64298;-76
2021/07/22 09:15:25;;;;;;;7.80;4.90;;;;;;;21.74;59.94;101525.88;124930;1096;64874;-77
2021/07/22 09:18:45;;;;;;;9.80;6.15;;;;;;;21.74;59.76;101531.27;124606;1095;64284;-76
2021/07/22 09:21:22;;;;;;;10.43;5.60;;;;;;;21.66;60.01;101529.73;124743;1096;64211;-78
2021/07/22 09:24:11;;;;;;;8.67;5.07;;;;;;;21.57;59.62;101531.12;124978;1095;64413;-78
2021/07/22 09:26:46;;;;;;;19.30;14.60;;;;;;;21.48;59.99;101527.88;124804;1096;64275;-77
2021/07/22 09:29:16;;;;;;;14.47;6.20;;;;;;;21.41;60.11;101531.70;124712;1096;64299;-77
2021/07/22 09:31:47;;;;;;;11.77;6.13;;;;;;;21.37;60.55;101531.32;124711;1096;64249;-78
2021/07/22 09:34:19;;;;;;;9.20;5.67;;;;;;;21.24;60.47;101531.48;124755;1096;64301;-79
2021/07/22 09:36:46;;;;;;;9.37;5.67;;;;;;;21.12;60.89;101534.94;124755;1095;64371;-77
2021/07/22 09:39:30;;;;;;;8.17;5.43;;;;;;;21.07;61.34;101537.47;124684;1096;64295;-78
2021/07/22 09:42:03;;;;;;;7.03;4.73;;;;;;;20.97;61.94;101542.55;125026;1096;64358;-74
2021/07/22 09:44:32;;;;;;;8.13;4.93;;;;;;;20.91;61.88;101538.05;125761;1096;64282;-75
2021/07/22 09:47:01;;;;;;;11.63;5.00;;;;;;;20.86;61.92;101536.03;125476;1096;64285;-78
2021/07/22 09:49:35;;;;;;;8.50;5.27;;;;;;;20.81;62.24;101538.58;124532;1095;64307;-79
2021/07/22 09:52:02;;;;;;;;;;;;;;;20.72;62.22;101543.44;124999;1096;64680;-77
2021/07/22 09:54:37;;;;;;;6.13;4.27;;;;;;;20.69;62.70;101535.77;125036;1096;64300;-75
2021/07/22 09:57:21;;;;;;;16.47;8.83;;;;;;;20.68;62.34;101539.53;125172;1096;64297;-76
2021/07/22 09:59:50;;;;;;;7.33;4.07;;;;;;;20.74;62.94;101545.89;127766;1097;62016;-76
2021/07/22 10:02:25;;;;;;;8.40;4.60;;;;;;;20.84;62.26;101543.52;126765;1095;64378;-77
2021/07/22 10:05:04;;;;;;;6.60;4.63;;;;;;;21.00;61.65;101542.13;124741;1096;64365;-77
2021/07/22 10:07:35;;;;;;;6.80;4.53;;;;;;;21.17;61.40;101540.48;124773;1095;64283;-76
2021/07/22 10:10:15;;;;;;;8.97;4.90;;;;;;;21.42;61.07;101536.06;124786;1095;64381;-78
2021/07/22 10:12:53;;;;;;;8.67;4.50;;;;;;;21.67;60.63;101539.47;124750;1096;64282;-78
2021/07/22 10:15:23;;;;;;;7.27;4.70;;;;;;;21.92;59.91;101533.94;124835;1097;64419;-78
2021/07/22 10:17:52;;;;;;;7.70;5.03;;;;;;;22.14;59.61;101530.70;124883;1096;64301;-79
2021/07/22 10:20:22;;;;;;;8.10;4.90;;;;;;;22.22;57.62;101538.48;124730;1096;64347;-78
2021/07/22 10:22:49;;;;;;;7.30;5.50;;;;;;;22.23;58.17;101529.36;124698;1095;64315;-78
2021/07/22 10:25:16;;;;;;;5.13;3.73;;;;;;;22.24;58.36;101524.77;124306;1096;64410;-76
2021/07/22 10:27:44;;;;;;;6.55;5.30;;;;;;;22.27;58.30;101525.14;124795;1096;64422;-79
2021/07/22 10:30:18;;;;;;;8.67;5.17;;;;;;;22.37;58.01;101525.36;124813;1096;64312;-80
2021/07/22 10:33:05;;;;;;;6.50;4.50;;;;;;;22.55;58.60;101513.63;124836;1096;64262;-77
2021/07/22 10:35:34;;;;;;;6.43;4.30;;;;;;;22.75;58.22;101510.56;124576;1095;64363;-83
2021/07/22 10:38:43;;;;;;;7.30;5.57;;;;;;;23.06;57.75;101513.98;125170;1096;64282;-81
2021/07/22 10:41:36;;;;;;;8.90;4.77;;;;;;;23.41;55.63;101513.05;124708;1096;64451;-78
2021/07/22 10:44:05;;;;;;;8.30;5.90;;;;;;;23.67;54.50;101510.83;124986;1096;64323;-77
2021/07/22 10:46:56;;;;;;;11.13;6.93;;;;;;;23.89;54.38;101503.69;125071;1096;64297;-78
2021/07/22 10:49:50;;;;;;;9.00;6.10;;;;;;;24.20;53.46;101509.61;124700;1096;64342;-77
2021/07/22 10:52:55;;;;;;;10.67;6.93;;;;;;;24.62;54.19;101501.07;124593;1096;64384;-78
2021/07/22 10:55:43;;;;;;;7.67;5.43;;;;;;;25.11;53.01;101486.79;125002;1095;64751;-77
2021/07/22 10:58:35;;;;;;;8.40;5.93;;;;;;;25.45;51.60;101492.91;125109;1096;64316;-77
2021/07/22 11:01:04;;;;;;;14.65;6.90;;;;;;;25.50;48.78;101490.27;124844;1096;64323;-78
2021/07/22 11:03:35;;;;;;;8.50;6.43;;;;;;;25.48;49.81;101492.42;124817;1096;64878;-79
2021/07/22 11:06:17;;;;;;;11.30;7.40;;;;;;;25.58;48.55;101484.34;124815;1096;64281;-77
2021/07/22 11:09:19;;;;;;;10.23;6.90;;;;;;;25.71;49.34;101485.02;124669;1096;64300;-76
2021/07/22 11:11:49;;;;;;;11.47;6.03;;;;;;;25.57;48.92;101485.44;124714;1095;64304;-77
2021/07/22 11:14:33;;;;;;;13.27;7.57;;;;;;;25.54;49.49;101475.06;124726;1095;64381;-76
2021/07/22 11:17:06;;;;;;;8.53;5.53;;;;;;;25.62;49.46;101479.23;124800;1096;64243;-79
2021/07/22 11:19:33;;;;;;;7.75;5.45;;;;;;;25.49;48.72;101483.17;124707;1096;64415;-79
2021/07/22 11:22:00;;;;;;;12.20;7.03;;;;;;;25.38;48.70;101481.44;124763;1095;64346;-78
2021/07/22 11:24:38;;;;;;;9.55;7.35;;;;;;;25.59;49.85;101469.70;124601;1095;64333;-79
2021/07/22 11:27:05;;;;;;;11.43;6.23;;;;;;;25.99;50.68;101471.18;124752;1095;64323;-77
2021/07/22 11:29:33;;;;;;;14.47;10.57;;;;;;;26.23;48.52;101465.38;124786;1096;64279;-79
2021/07/22 11:32:02;;;;;;;9.87;6.67;;;;;;;26.39;47.20;101466.28;124726;1096;64314;-78
2021/07/22 11:34:34;;;;;;;8.07;5.40;;;;;;;26.34;46.02;101467.08;124783;1096;64336;-78
2021/07/22 11:37:03;;;;;;;9.10;5.23;;;;;;;26.13;45.71;101476.17;124493;1095;64319;-80